TimeEST,TemperatureF,Dew PointF,Humidity,Sea Level PressureIn,VisibilityMPH,Wind Direction,Wind SpeedMPH,Gust SpeedMPH,PrecipitationIn,Events,Conditions,WindDirDegrees,DateUTC
12:53 AM,37.0,30.0,76,30.16,10.0,Calm,Calm,-,N/A,,Clear,0,2012-11-23 05:53:00
1:53 AM,35.1,30.0,82,30.16,10.0,Calm,Calm,-,N/A,,Clear,0,2012-11-23 06:53:00
2:53 AM,35.1,30.0,82,30.15,9.0,Calm,Calm,-,N/A,,Clear,0,2012-11-23 07:53:00
3:53 AM,33.1,28.9,85,30.15,10.0,Calm,Calm,-,N/A,,Clear,0,2012-11-23 08:53:00
4:53 AM,32.0,27.0,82,30.15,10.0,Calm,Calm,-,N/A,,Clear,0,2012-11-23 09:53:00
5:53 AM,33.1,28.9,85,30.16,10.0,Calm,Calm,-,N/A,,Clear,0,2012-11-23 10:53:00
6:53 AM,32.0,27.0,82,30.15,10.0,Calm,Calm,-,N/A,,Clear,0,2012-11-23 11:53:00
7:53 AM,36.0,30.9,82,30.17,8.0,Calm,Calm,-,N/A,,Clear,0,2012-11-23 12:53:00
8:53 AM,46.9,37.0,68,30.16,10.0,Calm,Calm,-,N/A,,Clear,0,2012-11-23 13:53:00
9:53 AM,55.0,33.1,43,30.15,10.0,SSW,3.5,-,N/A,,Clear,210,2012-11-23 14:53:00
10:53 AM,61.0,30.9,32,30.12,10.0,SW,4.6,-,N/A,,Clear,220,2012-11-23 15:53:00
11:53 AM,64.0,32.0,30,30.09,10.0,WSW,9.2,-,N/A,,Clear,250,2012-11-23 16:53:00
12:53 PM,68.0,35.1,30,30.03,10.0,SW,8.1,-,N/A,,Clear,220,2012-11-23 17:53:00
1:53 PM,68.0,37.0,32,30.00,10.0,SW,11.5,-,N/A,,Clear,230,2012-11-23 18:53:00
2:53 PM,70.0,39.0,32,29.96,10.0,SSW,12.7,-,N/A,,Clear,200,2012-11-23 19:53:00
3:53 PM,69.1,39.9,35,29.94,10.0,SW,12.7,-,N/A,,Clear,230,2012-11-23 20:53:00
4:53 PM,64.9,41.0,42,29.95,10.0,SSW,5.8,-,N/A,,Clear,210,2012-11-23 21:53:00
5:53 PM,62.1,42.1,48,29.94,10.0,SSW,4.6,-,N/A,,Clear,210,2012-11-23 22:53:00
6:53 PM,57.9,43.0,58,29.94,10.0,SW,3.5,-,N/A,,Clear,220,2012-11-23 23:53:00
7:53 PM,53.1,43.0,69,29.94,10.0,SSW,3.5,-,N/A,,Clear,200,2012-11-24 00:53:00
8:53 PM,55.0,43.0,64,29.93,10.0,SW,5.8,-,N/A,,Clear,230,2012-11-24 01:53:00
9:53 PM,57.9,42.1,56,29.91,10.0,WSW,8.1,-,N/A,,Clear,240,2012-11-24 02:53:00
10:53 PM,57.9,42.1,56,29.90,10.0,West,8.1,-,N/A,,Clear,260,2012-11-24 03:53:00
11:53 PM,60.1,42.1,51,29.91,10.0,West,6.9,-,N/A,,Clear,280,2012-11-24 04:53:00